createdAt,value
2018-10-18T00:01:30.993Z,12.30
2018-10-18T00:03:59.410Z,12.20
2018-10-18T00:06:27.694Z,12.20
2018-10-18T00:08:55.963Z,12.20
2018-10-18T00:11:24.342Z,12.20
2018-10-18T00:13:52.605Z,12.20
2018-10-18T00:16:20.907Z,12.10
2018-10-18T00:18:49.276Z,12.10
2018-10-18T00:21:17.563Z,12.00
2018-10-18T00:23:45.881Z,12.00
2018-10-18T00:26:14.315Z,12.00
2018-10-18T00:28:42.526Z,11.90
2018-10-18T00:31:10.870Z,11.90
2018-10-18T00:33:39.174Z,11.90
2018-10-18T00:36:07.630Z,11.90
2018-10-18T00:38:35.913Z,11.90
2018-10-18T00:41:04.530Z,11.90
2018-10-18T00:43:32.883Z,11.90
2018-10-18T00:46:01.262Z,11.90
2018-10-18T00:48:29.540Z,11.90
2018-10-18T00:50:57.807Z,12.00
2018-10-18T00:53:26.085Z,12.00
2018-10-18T00:55:54.386Z,11.90
2018-10-18T00:58:22.614Z,11.90
2018-10-18T01:00:50.887Z,11.90
2018-10-18T01:03:19.180Z,11.90
2018-10-18T01:05:47.487Z,11.80
2018-10-18T01:08:15.899Z,11.80
2018-10-18T01:10:44.131Z,11.90
2018-10-18T01:13:12.527Z,11.80
2018-10-18T01:15:40.882Z,11.80
2018-10-18T01:18:09.497Z,11.70
2018-10-18T01:20:37.778Z,11.60
2018-10-18T01:23:06.461Z,11.60
2018-10-18T01:25:34.843Z,11.50
2018-10-18T01:28:03.126Z,11.50
2018-10-18T01:30:31.498Z,11.40
2018-10-18T01:32:59.840Z,11.40
2018-10-18T01:35:28.285Z,11.40
2018-10-18T01:37:56.662Z,11.40
2018-10-18T01:40:25.020Z,11.40
2018-10-18T01:42:53.314Z,11.40
2018-10-18T01:45:21.636Z,11.40
2018-10-18T01:47:49.966Z,11.40
2018-10-18T01:50:18.317Z,11.30
2018-10-18T01:52:46.608Z,11.40
2018-10-18T01:55:14.902Z,11.30
2018-10-18T01:57:43.217Z,11.30
2018-10-18T02:00:11.571Z,11.30
2018-10-18T02:02:39.897Z,11.30
2018-10-18T02:05:08.222Z,11.30
2018-10-18T02:07:36.514Z,11.20
2018-10-18T02:10:05.683Z,11.20
2018-10-18T02:12:33.998Z,11.20
2018-10-18T02:15:02.547Z,11.10
2018-10-18T02:17:30.946Z,11.10
2018-10-18T02:19:59.206Z,11.00
2018-10-18T02:22:27.584Z,11.10
2018-10-18T02:24:55.980Z,11.00
2018-10-18T02:27:24.293Z,11.00
2018-10-18T02:29:52.592Z,11.00
2018-10-18T02:32:20.879Z,11.00
2018-10-18T02:34:49.168Z,11.00
2018-10-18T02:37:17.558Z,11.00
2018-10-18T02:39:45.877Z,11.00
2018-10-18T02:42:14.203Z,11.10
2018-10-18T02:44:42.491Z,11.10
2018-10-18T02:47:10.778Z,11.10
2018-10-18T02:49:39.150Z,11.10
2018-10-18T02:52:07.540Z,11.10
2018-10-18T02:54:35.843Z,11.20
2018-10-18T02:57:04.197Z,11.20
2018-10-18T02:59:32.525Z,11.20
2018-10-18T03:02:00.831Z,11.10
2018-10-18T03:04:29.141Z,11.10
2018-10-18T03:06:57.417Z,11.00
2018-10-18T03:09:25.702Z,11.00
2018-10-18T03:11:54.027Z,10.90
2018-10-18T03:14:22.378Z,10.90
2018-10-18T03:16:50.706Z,10.90
2018-10-18T03:19:19.199Z,10.80
2018-10-18T03:21:47.579Z,10.80
2018-10-18T03:24:15.961Z,10.70
2018-10-18T03:26:44.182Z,10.70
2018-10-18T03:29:12.483Z,10.70
2018-10-18T03:31:40.766Z,10.60
2018-10-18T03:34:09.175Z,10.60
2018-10-18T03:36:37.491Z,10.60
2018-10-18T03:39:08.394Z,10.50
2018-10-18T03:41:36.815Z,10.50
2018-10-18T03:44:05.579Z,10.50
2018-10-18T03:46:34.151Z,10.50
2018-10-18T03:49:03.178Z,10.50
2018-10-18T03:51:31.520Z,10.50
2018-10-18T03:53:59.953Z,10.40
2018-10-18T03:56:28.236Z,10.40
2018-10-18T03:58:56.658Z,10.40
2018-10-18T04:01:25.039Z,10.40
2018-10-18T04:03:53.336Z,10.50
2018-10-18T04:06:21.689Z,10.50
2018-10-18T04:08:49.977Z,10.50
2018-10-18T04:11:18.273Z,10.50
2018-10-18T04:13:46.637Z,10.50
2018-10-18T04:16:15.020Z,10.40
2018-10-18T04:18:43.283Z,10.50
2018-10-18T04:21:11.575Z,10.40
2018-10-18T04:23:39.861Z,10.40
2018-10-18T04:26:08.191Z,10.40
2018-10-18T04:28:36.484Z,10.40
2018-10-18T04:31:04.839Z,10.50
2018-10-18T04:33:33.579Z,10.50
2018-10-18T04:36:01.897Z,10.50
2018-10-18T04:38:30.177Z,10.50
2018-10-18T04:40:58.454Z,10.40
2018-10-18T04:43:26.815Z,10.40
2018-10-18T04:45:55.144Z,10.40
2018-10-18T04:48:23.525Z,10.50
2018-10-18T04:50:51.719Z,10.50
2018-10-18T04:53:19.982Z,10.50
2018-10-18T04:55:48.266Z,10.40
2018-10-18T04:58:16.579Z,10.40
2018-10-18T05:00:44.916Z,10.40
2018-10-18T05:03:13.190Z,10.50
2018-10-18T05:05:50.743Z,10.50
2018-10-18T05:08:19.252Z,10.50
2018-10-18T05:10:48.610Z,10.50
2018-10-18T05:13:17.261Z,10.50
2018-10-18T05:15:45.580Z,10.50
2018-10-18T05:18:13.875Z,10.50
2018-10-18T05:20:42.201Z,10.50
2018-10-18T05:23:10.702Z,10.50
2018-10-18T05:25:39.315Z,10.50
2018-10-18T05:28:07.570Z,10.50
2018-10-18T05:30:35.946Z,10.50
2018-10-18T05:33:04.282Z,10.50
2018-10-18T05:35:32.621Z,10.50
2018-10-18T05:38:00.982Z,10.40
2018-10-18T05:40:29.271Z,10.40
2018-10-18T05:42:57.599Z,10.40
2018-10-18T05:45:25.917Z,10.40
2018-10-18T05:47:54.187Z,10.50
2018-10-18T05:50:22.573Z,10.50
2018-10-18T05:52:50.926Z,10.50
2018-10-18T05:55:19.249Z,10.50
2018-10-18T05:57:47.604Z,10.60
2018-10-18T06:00:17.143Z,10.60
2018-10-18T06:02:45.603Z,10.60
2018-10-18T06:05:15.018Z,10.60
2018-10-18T06:07:44.099Z,10.60
2018-10-18T06:10:24.860Z,10.60
2018-10-18T06:12:53.365Z,10.60
2018-10-18T06:15:22.255Z,10.60
2018-10-18T06:17:50.814Z,10.70
2018-10-18T06:20:19.854Z,10.90
2018-10-18T06:22:48.190Z,11.20
2018-10-18T06:25:16.572Z,11.30
2018-10-18T06:27:44.866Z,11.60
2018-10-18T06:30:15.298Z,11.80
2018-10-18T06:32:43.639Z,11.90
2018-10-18T06:35:13.277Z,12.10
2018-10-18T06:37:41.556Z,12.40
2018-10-18T06:40:15.882Z,12.60
2018-10-18T06:42:44.162Z,12.80
2018-10-18T06:45:15.828Z,13.00
2018-10-18T06:47:44.741Z,13.20
2018-10-18T06:50:17.301Z,13.40
2018-10-18T06:52:45.604Z,13.50
2018-10-18T06:55:13.946Z,13.70
2018-10-18T06:57:42.858Z,13.90
2018-10-18T07:00:14.532Z,14.00
2018-10-18T07:02:43.408Z,14.10
2018-10-18T07:05:12.897Z,14.20
2018-10-18T07:07:41.393Z,14.30
2018-10-18T07:10:09.697Z,14.30
2018-10-18T07:12:38.574Z,14.40
2018-10-18T07:15:07.966Z,14.40
2018-10-18T07:17:37.357Z,14.50
2018-10-18T07:20:06.189Z,14.60
2018-10-18T07:22:34.469Z,14.70
2018-10-18T07:25:02.781Z,14.80
2018-10-18T07:27:31.092Z,14.80
2018-10-18T07:30:00.349Z,14.80
2018-10-18T07:32:28.650Z,14.80
2018-10-18T07:34:57.392Z,14.80
2018-10-18T07:37:25.639Z,14.90
2018-10-18T07:39:53.939Z,15.00
2018-10-18T07:42:22.225Z,15.00
2018-10-18T07:44:50.553Z,15.10
2018-10-18T07:47:18.860Z,15.20
2018-10-18T07:49:47.152Z,15.30
2018-10-18T07:52:15.445Z,15.40
2018-10-18T07:54:43.805Z,15.50
2018-10-18T07:57:12.225Z,15.60
2018-10-18T07:59:40.626Z,15.70
2018-10-18T08:02:08.928Z,15.80
2018-10-18T08:04:37.214Z,15.70
2018-10-18T08:07:05.750Z,15.70
2018-10-18T08:09:33.977Z,15.60
2018-10-18T08:12:02.240Z,15.60
2018-10-18T08:14:30.598Z,15.70
2018-10-18T08:16:58.964Z,15.70
2018-10-18T08:19:27.299Z,15.60
2018-10-18T08:21:55.605Z,15.40
2018-10-18T08:24:23.914Z,15.50
2018-10-18T08:26:52.218Z,15.60
2018-10-18T08:29:20.545Z,15.60
2018-10-18T08:31:48.881Z,15.60
2018-10-18T08:34:17.126Z,15.50
2018-10-18T08:36:45.418Z,15.60
2018-10-18T08:39:13.710Z,15.70
2018-10-18T08:41:41.986Z,16.00
2018-10-18T08:44:10.450Z,16.00
2018-10-18T08:46:38.715Z,15.90
2018-10-18T08:49:07.064Z,15.90
2018-10-18T08:51:35.296Z,16.10
2018-10-18T08:54:03.656Z,16.10
2018-10-18T08:56:31.960Z,16.10
2018-10-18T08:59:00.303Z,16.20
2018-10-18T09:01:28.558Z,16.30
2018-10-18T09:03:56.833Z,16.50
2018-10-18T09:06:25.378Z,16.50
2018-10-18T09:08:53.779Z,16.60
2018-10-18T09:11:22.074Z,16.70
2018-10-18T09:13:50.370Z,16.60
2018-10-18T09:16:18.765Z,16.60
2018-10-18T09:18:47.143Z,16.60
2018-10-18T09:21:15.410Z,16.70
2018-10-18T09:23:43.745Z,16.60
2018-10-18T09:26:12.061Z,16.50
2018-10-18T09:28:40.370Z,16.30
2018-10-18T09:31:08.672Z,16.20
2018-10-18T09:33:36.931Z,16.20
2018-10-18T09:36:05.393Z,16.20
2018-10-18T09:38:33.733Z,16.20
2018-10-18T09:41:01.982Z,16.10
2018-10-18T09:43:30.282Z,16.30
2018-10-18T09:45:58.708Z,16.30
2018-10-18T09:48:26.993Z,16.50
2018-10-18T09:50:55.297Z,16.50
2018-10-18T09:53:23.642Z,16.60
2018-10-18T09:55:51.953Z,16.60
2018-10-18T09:58:20.186Z,16.60
2018-10-18T10:00:53.974Z,16.60
2018-10-18T10:03:22.401Z,16.70
2018-10-18T10:05:50.767Z,16.80
2018-10-18T10:08:19.084Z,16.80
2018-10-18T10:10:47.442Z,16.80
2018-10-18T10:13:15.902Z,17.00
2018-10-18T10:15:44.185Z,17.00
2018-10-18T10:18:12.487Z,17.10
2018-10-18T10:20:40.736Z,17.10
2018-10-18T10:23:09.017Z,17.20
2018-10-18T10:25:37.532Z,17.20
2018-10-18T10:28:05.809Z,17.20
2018-10-18T10:30:34.107Z,17.20
2018-10-18T10:33:02.397Z,17.40
2018-10-18T10:35:30.762Z,17.50
2018-10-18T10:37:59.072Z,17.60
2018-10-18T10:40:27.418Z,17.60
2018-10-18T10:42:55.740Z,17.50
2018-10-18T10:45:24.027Z,17.50
2018-10-18T10:47:52.638Z,17.50
2018-10-18T10:50:20.957Z,17.60
2018-10-18T10:52:49.182Z,17.70
2018-10-18T10:55:17.490Z,17.70
2018-10-18T10:57:45.823Z,17.70
2018-10-18T11:00:22.987Z,17.80
2018-10-18T11:02:51.249Z,17.70
2018-10-18T11:05:19.563Z,17.80
2018-10-18T11:07:47.818Z,17.90
2018-10-18T11:10:16.222Z,17.90
2018-10-18T11:12:44.519Z,18.00
2018-10-18T11:15:12.888Z,18.10
2018-10-18T11:17:41.183Z,18.20
2018-10-18T11:20:09.574Z,18.20
2018-10-18T11:22:37.799Z,18.20
2018-10-18T11:25:06.295Z,18.30
2018-10-18T11:27:34.612Z,18.30
2018-10-18T11:30:02.899Z,18.20
2018-10-18T11:32:31.207Z,18.30
2018-10-18T11:34:59.497Z,18.20
2018-10-18T11:37:27.819Z,18.20
2018-10-18T11:39:56.126Z,18.30
2018-10-18T11:42:24.486Z,18.50
2018-10-18T11:44:52.772Z,18.50
2018-10-18T11:47:21.103Z,18.60
2018-10-18T11:49:49.374Z,18.70
2018-10-18T11:52:17.724Z,18.70
2018-10-18T11:54:46.017Z,18.70
2018-10-18T11:57:14.316Z,18.70
2018-10-18T11:59:42.604Z,18.80
2018-10-18T12:02:10.977Z,18.80
2018-10-18T12:04:39.207Z,18.80
2018-10-18T12:07:07.542Z,19.00
2018-10-18T12:09:35.845Z,18.90
2018-10-18T12:12:04.189Z,19.00
2018-10-18T12:14:32.519Z,19.10
2018-10-18T12:17:00.904Z,19.10
2018-10-18T12:19:29.158Z,19.10
2018-10-18T12:21:57.446Z,19.10
2018-10-18T12:24:25.725Z,19.00
2018-10-18T12:26:54.099Z,19.10
2018-10-18T12:29:22.322Z,19.10
2018-10-18T12:31:50.721Z,19.20
2018-10-18T12:34:19.010Z,19.20
2018-10-18T12:36:47.297Z,19.00
2018-10-18T12:39:15.687Z,18.90
2018-10-18T12:41:44.099Z,18.70
2018-10-18T12:44:12.338Z,18.80
2018-10-18T12:46:40.634Z,18.70
2018-10-18T12:49:08.918Z,18.60
2018-10-18T12:51:37.343Z,18.70
2018-10-18T12:54:06.065Z,18.60
2018-10-18T12:56:34.414Z,18.60
2018-10-18T12:59:02.702Z,18.60
2018-10-18T13:01:31.006Z,18.50
2018-10-18T13:03:59.346Z,18.40
2018-10-18T13:06:27.724Z,18.30
2018-10-18T13:08:56.011Z,18.30
2018-10-18T13:11:24.315Z,18.30
2018-10-18T13:13:52.645Z,18.30
2018-10-18T13:16:20.934Z,18.30
2018-10-18T13:18:49.234Z,18.30
2018-10-18T13:21:17.543Z,18.30
2018-10-18T13:23:45.825Z,18.30
2018-10-18T13:26:14.251Z,18.20
2018-10-18T13:28:42.427Z,18.30
2018-10-18T13:31:10.689Z,18.30
2018-10-18T13:33:38.969Z,18.30
2018-10-18T13:36:07.327Z,18.30
2018-10-18T13:38:35.642Z,18.40
2018-10-18T13:41:10.514Z,18.40
2018-10-18T13:43:38.853Z,18.30
2018-10-18T13:46:07.127Z,18.40
2018-10-18T13:48:35.438Z,18.40
2018-10-18T13:51:03.726Z,18.40
2018-10-18T13:53:36.219Z,18.40
2018-10-18T13:56:04.620Z,18.50
2018-10-18T13:58:32.842Z,18.50
2018-10-18T14:01:01.108Z,18.50
2018-10-18T14:03:29.421Z,18.50
2018-10-18T14:05:57.706Z,18.50
2018-10-18T14:08:26.102Z,18.50
2018-10-18T14:10:54.356Z,18.50
2018-10-18T14:13:22.685Z,18.50
2018-10-18T14:15:50.944Z,18.50
2018-10-18T14:18:19.226Z,18.40
2018-10-18T14:20:47.566Z,18.40
2018-10-18T14:23:15.914Z,18.30
2018-10-18T14:25:44.282Z,18.30
2018-10-18T14:28:12.599Z,18.30
2018-10-18T14:30:40.928Z,18.30
2018-10-18T14:33:09.192Z,18.30
2018-10-18T14:35:37.474Z,18.30
2018-10-18T14:38:05.943Z,18.30
2018-10-18T14:40:34.221Z,18.20
2018-10-18T14:43:02.581Z,18.20
2018-10-18T14:45:30.881Z,18.20
2018-10-18T14:47:59.210Z,18.20
2018-10-18T14:50:27.579Z,18.10
2018-10-18T14:52:55.809Z,18.10
2018-10-18T14:55:24.098Z,18.10
2018-10-18T14:57:52.408Z,18.10
2018-10-18T15:00:20.706Z,18.10
2018-10-18T15:02:49.015Z,18.10
2018-10-18T15:05:17.388Z,18.10
2018-10-18T15:07:45.567Z,18.10
2018-10-18T15:10:14.525Z,18.00
2018-10-18T15:12:43.219Z,18.00
2018-10-18T15:15:12.628Z,18.00
2018-10-18T15:17:41.283Z,17.90
2018-10-18T15:20:10.481Z,17.80
2018-10-18T15:22:39.395Z,17.80
2018-10-18T15:25:08.575Z,17.80
2018-10-18T15:27:36.956Z,17.80
2018-10-18T15:30:06.574Z,17.70
2018-10-18T15:32:34.907Z,17.70
2018-10-18T15:35:03.504Z,17.60
2018-10-18T15:37:31.720Z,17.60
2018-10-18T15:40:00.010Z,17.50
2018-10-18T15:42:28.265Z,17.50
2018-10-18T15:44:56.594Z,17.40
2018-10-18T15:47:24.984Z,17.40
2018-10-18T15:49:53.311Z,17.30
2018-10-18T15:52:21.644Z,17.30
2018-10-18T15:54:49.943Z,17.20
2018-10-18T15:57:18.441Z,17.20
2018-10-18T15:59:46.749Z,17.10
2018-10-18T16:02:15.035Z,17.10
2018-10-18T16:04:43.350Z,17.00
2018-10-18T16:07:11.620Z,17.00
2018-10-18T16:09:39.915Z,16.90
2018-10-18T16:12:08.212Z,16.90
2018-10-18T16:14:36.494Z,16.80
2018-10-18T16:17:04.998Z,16.80
2018-10-18T16:19:33.294Z,16.70
2018-10-18T16:22:01.567Z,16.60
2018-10-18T16:24:29.897Z,16.60
2018-10-18T16:26:58.160Z,16.50
2018-10-18T16:29:26.448Z,16.50
2018-10-18T16:31:54.744Z,16.50
2018-10-18T16:34:23.121Z,16.30
2018-10-18T16:36:51.455Z,16.30
2018-10-18T16:39:19.871Z,16.20
2018-10-18T16:41:48.591Z,16.20
2018-10-18T16:44:17.336Z,16.20
2018-10-18T16:46:46.257Z,16.10
2018-10-18T16:49:15.465Z,16.00
2018-10-18T16:51:44.490Z,16.00
2018-10-18T16:54:12.828Z,15.90
2018-10-18T16:56:44.022Z,15.90
2018-10-18T16:59:13.359Z,15.80
2018-10-18T17:01:43.196Z,15.80
2018-10-18T17:04:11.635Z,15.70
2018-10-18T17:06:40.533Z,15.70
2018-10-18T17:09:12.050Z,15.60
2018-10-18T17:11:41.646Z,15.60
2018-10-18T17:14:10.045Z,15.50
2018-10-18T17:16:38.259Z,15.40
2018-10-18T17:19:06.642Z,15.30
2018-10-18T17:21:34.945Z,15.30
2018-10-18T17:24:03.289Z,15.20
2018-10-18T17:26:31.563Z,15.20
2018-10-18T17:28:59.829Z,15.10
2018-10-18T17:31:28.161Z,15.10
2018-10-18T17:33:56.464Z,15.00
2018-10-18T17:36:24.994Z,15.00
2018-10-18T17:38:53.406Z,14.90
2018-10-18T17:41:21.756Z,14.90
2018-10-18T17:43:50.103Z,14.90
2018-10-18T17:46:18.661Z,14.90
2018-10-18T17:48:47.092Z,14.80
2018-10-18T17:51:15.375Z,14.80
2018-10-18T17:53:43.675Z,14.80
2018-10-18T17:56:12.008Z,14.80
2018-10-18T17:58:40.420Z,14.70
2018-10-18T18:01:08.676Z,14.60
2018-10-18T18:03:37.033Z,14.70
2018-10-18T18:06:05.559Z,14.60
2018-10-18T18:08:33.856Z,14.60
2018-10-18T18:11:02.153Z,14.60
2018-10-18T18:13:30.499Z,14.60
2018-10-18T18:15:58.877Z,14.60
2018-10-18T18:18:27.178Z,14.60
2018-10-18T18:20:55.470Z,14.60
2018-10-18T18:23:23.755Z,14.50
2018-10-18T18:25:52.113Z,14.50
2018-10-18T18:28:20.420Z,14.40
2018-10-18T18:30:48.715Z,14.30
2018-10-18T18:33:17.030Z,14.20
2018-10-18T18:35:45.323Z,14.20
2018-10-18T18:38:13.640Z,14.20
2018-10-18T18:40:41.946Z,14.10
2018-10-18T18:43:10.315Z,14.10
2018-10-18T18:45:38.647Z,14.10
2018-10-18T18:48:06.945Z,14.00
2018-10-18T18:50:35.273Z,14.00
2018-10-18T18:53:03.664Z,13.90
2018-10-18T18:55:31.878Z,13.90
2018-10-18T18:58:00.329Z,13.80
2018-10-18T19:00:28.640Z,13.80
2018-10-18T19:02:57.091Z,13.70
2018-10-18T19:05:25.369Z,13.70
2018-10-18T19:07:54.434Z,13.60
2018-10-18T19:10:22.701Z,13.60
2018-10-18T19:12:50.992Z,13.60
2018-10-18T19:15:19.472Z,13.60
2018-10-18T19:17:47.950Z,13.50
2018-10-18T19:20:16.370Z,13.50
2018-10-18T19:22:44.863Z,13.50
2018-10-18T19:25:13.398Z,13.40
2018-10-18T19:27:41.819Z,13.40
2018-10-18T19:30:11.457Z,13.30
2018-10-18T19:32:39.868Z,13.30
2018-10-18T19:35:08.308Z,13.30
2018-10-18T19:37:36.696Z,13.20
2018-10-18T19:40:07.139Z,13.20
2018-10-18T19:42:35.534Z,13.20
2018-10-18T19:45:04.050Z,13.20
2018-10-18T19:47:32.954Z,13.10
2018-10-18T19:50:01.557Z,13.10
2018-10-18T19:52:30.227Z,13.10
2018-10-18T19:54:58.461Z,13.10
2018-10-18T19:57:26.854Z,13.00
2018-10-18T19:59:55.319Z,13.00
2018-10-18T20:02:23.701Z,13.00
2018-10-18T20:04:52.355Z,12.90
2018-10-18T20:07:21.067Z,12.90
2018-10-18T20:09:49.867Z,12.90
2018-10-18T20:12:18.964Z,12.90
2018-10-18T20:14:48.227Z,12.90
2018-10-18T20:17:16.666Z,12.90
2018-10-18T20:19:45.025Z,12.90
2018-10-18T20:22:13.969Z,12.80
2018-10-18T20:24:42.353Z,12.80
2018-10-18T20:27:11.438Z,12.80
2018-10-18T20:29:39.734Z,12.80
2018-10-18T20:32:08.020Z,12.80
2018-10-18T20:34:36.291Z,12.80
2018-10-18T20:37:05.236Z,12.90
2018-10-18T20:39:33.548Z,12.80
2018-10-18T20:42:01.925Z,12.80
2018-10-18T20:44:30.215Z,12.80
2018-10-18T20:46:58.598Z,12.80
2018-10-18T20:49:26.851Z,12.70
2018-10-18T20:51:55.189Z,12.70
2018-10-18T20:54:23.483Z,12.80
2018-10-18T20:56:51.968Z,12.80
2018-10-18T20:59:20.282Z,12.90
2018-10-18T21:01:48.569Z,12.90
2018-10-18T21:04:16.883Z,12.90
2018-10-18T21:06:45.348Z,12.90
2018-10-18T21:09:13.468Z,12.80
2018-10-18T21:11:41.802Z,12.80
2018-10-18T21:14:10.126Z,12.70
2018-10-18T21:16:38.532Z,12.60
2018-10-18T21:19:06.828Z,12.50
2018-10-18T21:21:35.546Z,12.50
2018-10-18T21:24:03.978Z,12.40
2018-10-18T21:26:32.266Z,12.40
2018-10-18T21:29:00.561Z,12.30
2018-10-18T21:31:28.890Z,12.20
2018-10-18T21:33:57.234Z,12.20
2018-10-18T21:36:25.533Z,12.20
2018-10-18T21:38:53.810Z,12.10
2018-10-18T21:41:22.099Z,12.10
2018-10-18T21:43:50.390Z,12.00
2018-10-18T21:46:18.678Z,12.00
2018-10-18T21:48:47.063Z,11.90
2018-10-18T21:51:15.393Z,11.90
2018-10-18T21:53:43.610Z,11.90
2018-10-18T21:56:11.939Z,11.80
2018-10-18T21:58:40.236Z,11.70
2018-10-18T22:01:08.525Z,11.70
2018-10-18T22:03:36.798Z,11.70
2018-10-18T22:06:05.103Z,11.60
2018-10-18T22:08:33.529Z,11.60
2018-10-18T22:11:01.856Z,11.50
2018-10-18T22:13:30.087Z,11.50
2018-10-18T22:15:58.370Z,11.60
2018-10-18T22:18:26.695Z,11.60
2018-10-18T22:20:55.028Z,11.60
2018-10-18T22:23:23.327Z,11.70
2018-10-18T22:25:51.778Z,11.70
2018-10-18T22:28:20.125Z,11.70
2018-10-18T22:30:48.543Z,11.70
2018-10-18T22:33:16.880Z,11.80
2018-10-18T22:35:45.173Z,11.80
2018-10-18T22:38:13.466Z,11.80
2018-10-18T22:40:41.774Z,11.70
2018-10-18T22:43:10.065Z,11.80
2018-10-18T22:45:38.422Z,11.80
2018-10-18T22:48:06.706Z,11.80
2018-10-18T22:50:35.033Z,11.70
2018-10-18T22:53:03.502Z,11.70
2018-10-18T22:55:31.807Z,11.70
2018-10-18T22:58:00.123Z,11.70
2018-10-18T23:00:28.487Z,11.70
2018-10-18T23:02:56.791Z,11.70
2018-10-18T23:05:25.061Z,11.70
2018-10-18T23:07:53.420Z,11.60
2018-10-18T23:10:21.734Z,11.60
2018-10-18T23:12:50.034Z,11.60
2018-10-18T23:15:18.356Z,11.60
2018-10-18T23:17:46.654Z,11.50
2018-10-18T23:20:15.006Z,11.50
2018-10-18T23:22:43.305Z,11.50
2018-10-18T23:25:11.614Z,11.50
2018-10-18T23:27:39.922Z,11.50
2018-10-18T23:30:08.584Z,11.50
2018-10-18T23:32:36.907Z,11.50
2018-10-18T23:35:05.791Z,11.40
2018-10-18T23:37:34.055Z,11.50
2018-10-18T23:40:02.459Z,11.50
2018-10-18T23:42:30.726Z,11.40
2018-10-18T23:44:59.127Z,11.40
2018-10-18T23:47:27.497Z,11.40
2018-10-18T23:49:55.850Z,11.40
2018-10-18T23:52:24.174Z,11.30
2018-10-18T23:54:52.544Z,11.30
2018-10-18T23:57:20.888Z,11.20
2018-10-18T23:59:49.204Z,11.20
